Time;durP1;ratioP1;P1;durP2;ratioP2;P2;SDS_P1;SDS_P2;PMS_P1;PMS_P2;Temp;Humidity;BMP_temperature;BMP_pressure;BME280_temperature;BME280_humidity;BME280_pressure;Samples;Min_cycle;Max_cycle;Signal;HPM_P1;HPM_P2
2022/02/28 00:00:53;;;;;;;9.82;2.17;;;4.40;57.00;;;;;;5046665;28;20036;-76
2022/02/28 00:03:19;;;;;;;5.53;2.08;;;4.50;56.70;;;;;;5046917;28;20033;-77
2022/02/28 00:05:45;;;;;;;;;;;4.40;56.10;;;;;;5045838;28;20080;-77
2022/02/28 00:08:11;;;;;;;9.57;2.85;;;4.40;56.00;;;;;;5049550;28;20643;-77
2022/02/28 00:10:37;;;;;;;7.78;2.90;;;4.40;56.50;;;;;;5049039;28;20041;-77
2022/02/28 00:13:03;;;;;;;7.00;3.13;;;4.40;56.90;;;;;;5049589;28;20507;-77
2022/02/28 00:15:29;;;;;;;8.10;2.70;;;4.40;56.80;;;;;;5049347;28;20055;-77
2022/02/28 00:17:55;;;;;;;8.52;2.60;;;4.40;56.30;;;;;;5049455;28;20024;-77
2022/02/28 00:20:21;;;;;;;8.50;3.75;;;4.30;56.90;;;;;;5049569;28;20036;-77
2022/02/28 00:22:49;;;;;;;;;;;4.30;57.50;;;;;;5049840;28;20348;-76
2022/02/28 00:25:15;;;;;;;7.43;3.13;;;4.20;58.70;;;;;;5050769;28;19935;-77
2022/02/28 00:27:41;;;;;;;9.65;3.08;;;4.10;61.10;;;;;;5048764;28;20063;-77
2022/02/28 00:30:07;;;;;;;;;;;4.10;63.00;;;;;;5050871;28;20418;-76
2022/02/28 00:32:34;;;;;;;8.10;3.85;;;4.00;65.20;;;;;;5049912;28;19931;-77
2022/02/28 00:34:59;;;;;;;7.32;3.65;;;3.90;66.80;;;;;;5050729;28;20028;-77
2022/02/28 00:37:25;;;;;;;14.15;3.83;;;3.90;68.30;;;;;;5049622;28;20029;-77
2022/02/28 00:39:51;;;;;;;;;;;3.80;69.10;;;;;;5049202;28;20716;-77
2022/02/28 00:42:16;;;;;;;10.07;3.65;;;3.80;70.30;;;;;;5050410;28;20432;-77
2022/02/28 00:44:44;;;;;;;7.97;3.58;;;3.70;70.70;;;;;;5049198;28;20036;-77
2022/02/28 00:47:10;;;;;;;6.90;3.42;;;3.70;71.00;;;;;;5049244;28;20032;-76
2022/02/28 00:49:35;;;;;;;7.70;3.15;;;3.70;71.60;;;;;;5048953;28;20413;-77
2022/02/28 00:52:02;;;;;;;12.30;4.25;;;3.60;71.80;;;;;;5049102;28;20040;-77
2022/02/28 00:54:27;;;;;;;12.27;4.18;;;3.70;71.80;;;;;;5050060;28;20056;-77
2022/02/28 00:56:54;;;;;;;14.07;4.88;;;3.70;71.60;;;;;;5050039;28;20060;-76
2022/02/28 00:59:20;;;;;;;8.20;4.20;;;3.70;71.90;;;;;;5049468;28;20037;-77
2022/02/28 01:01:46;;;;;;;11.55;4.18;;;3.80;71.60;;;;;;5048439;28;20074;-77
2022/02/28 01:04:11;;;;;;;;;;;3.70;71.80;;;;;;5049647;28;20493;-77
2022/02/28 01:06:38;;;;;;;10.48;4.50;;;3.80;71.70;;;;;;5048862;28;19909;-77
2022/02/28 01:09:03;;;;;;;;;;;3.70;72.10;;;;;;5051599;28;20029;-79
2022/02/28 01:11:30;;;;;;;8.45;3.75;;;3.70;72.70;;;;;;5053094;28;19923;-77
2022/02/28 01:13:57;;;;;;;8.38;3.38;;;3.80;72.80;;;;;;5052914;28;20052;-78
2022/02/28 01:16:23;;;;;;;10.25;4.20;;;3.80;71.90;;;;;;5051475;28;20040;-78
2022/02/28 01:18:49;;;;;;;;;;;3.80;71.90;;;;;;5049219;28;20036;-78
2022/02/28 01:21:15;;;;;;;7.45;3.70;;;3.80;71.50;;;;;;5049277;28;20285;-78
2022/02/28 01:23:41;;;;;;;8.68;4.20;;;3.80;70.80;;;;;;5050089;28;20032;-77
2022/02/28 01:26:06;;;;;;;;;;;3.90;70.60;;;;;;5050340;28;20040;-77
2022/02/28 01:28:32;;;;;;;8.82;3.70;;;3.80;71.00;;;;;;5048211;28;20454;-77
2022/02/28 01:30:57;;;;;;;;;;;3.80;72.10;;;;;;5050694;28;20433;-76
2022/02/28 01:33:23;;;;;;;9.30;4.03;;;3.80;70.50;;;;;;5050736;28;19909;-77
2022/02/28 01:35:49;;;;;;;;;;;3.70;70.30;;;;;;5049462;28;20056;-77
2022/02/28 01:38:14;;;;;;;9.02;2.42;;;3.70;68.50;;;;;;5048575;28;20284;-77
2022/02/28 01:40:40;;;;;;;5.47;2.67;;;3.70;67.70;;;;;;5048895;28;20614;-78
2022/02/28 01:43:06;;;;;;;;;;;3.60;67.90;;;;;;5049296;28;20033;-78
2022/02/28 01:45:32;;;;;;;9.10;3.35;;;3.70;67.60;;;;;;5050183;28;20036;-78
2022/02/28 01:47:58;;;;;;;6.90;3.15;;;3.70;68.30;;;;;;5049084;28;20497;-78
2022/02/28 01:50:25;;;;;;;7.18;3.13;;;3.60;68.50;;;;;;5050248;28;20041;-77
2022/02/28 01:52:51;;;;;;;9.27;3.38;;;3.60;69.40;;;;;;5048621;28;20017;-77
2022/02/28 01:55:19;;;;;;;9.98;3.17;;;3.50;69.70;;;;;;5050555;28;20405;-78
2022/02/28 01:57:45;;;;;;;8.85;3.42;;;3.60;70.40;;;;;;5050124;28;20031;-77
2022/02/28 02:00:14;;;;;;;9.43;2.78;;;3.50;70.60;;;;;;5050226;28;20060;-77
2022/02/28 02:02:41;;;;;;;10.10;3.20;;;3.50;71.40;;;;;;5049056;28;20025;-77
2022/02/28 02:05:08;;;;;;;7.22;2.92;;;3.50;71.80;;;;;;5049158;28;20033;-77
2022/02/28 02:07:34;;;;;;;8.80;3.50;;;3.50;71.90;;;;;;5050209;28;20097;-77
2022/02/28 02:10:01;;;;;;;;;;;3.40;73.20;;;;;;5049593;28;20517;-77
2022/02/28 02:12:28;;;;;;;8.98;3.15;;;3.40;73.10;;;;;;5049668;28;19909;-77
2022/02/28 02:14:54;;;;;;;7.97;2.78;;;3.40;74.50;;;;;;5052154;28;20162;-78
2022/02/28 02:17:20;;;;;;;6.43;2.95;;;3.40;75.10;;;;;;5050825;28;20029;-77
2022/02/28 02:19:47;;;;;;;10.38;3.70;;;3.40;75.20;;;;;;5048668;28;20036;-78
2022/02/28 02:22:15;;;;;;;8.50;3.17;;;3.30;76.00;;;;;;5047050;28;20137;-76
2022/02/28 02:24:41;;;;;;;10.55;2.80;;;3.40;77.10;;;;;;5048255;28;20028;-77
2022/02/28 02:27:07;;;;;;;12.93;3.88;;;3.40;77.80;;;;;;5047745;28;20079;-78
2022/02/28 02:29:39;;;;;;;6.90;2.45;;;3.30;78.30;;;;;;5046279;28;20053;-78
2022/02/28 02:32:15;;;;;;;10.95;3.85;;;3.30;78.80;;;;;;5046085;28;20539;-77
2022/02/28 02:34:42;;;;;;;7.75;2.60;;;3.30;78.90;;;;;;5046516;28;20029;-77
2022/02/28 02:37:08;;;;;;;7.38;2.80;;;3.30;79.30;;;;;;5046530;28;20171;-78
2022/02/28 02:39:39;;;;;;;8.95;2.70;;;3.10;79.40;;;;;;5047020;28;20508;-77
2022/02/28 02:42:04;;;;;;;8.52;3.60;;;3.20;80.10;;;;;;5047703;28;20036;-78
2022/02/28 02:44:31;;;;;;;8.15;3.05;;;3.20;80.10;;;;;;5048404;28;20041;-78
2022/02/28 02:46:57;;;;;;;5.95;2.88;;;3.20;80.60;;;;;;5046906;28;20060;-77
2022/02/28 02:49:23;;;;;;;12.38;3.60;;;3.20;80.80;;;;;;5046859;28;20126;-77
2022/02/28 02:51:49;;;;;;;;;;;3.20;80.80;;;;;;5046764;28;20924;-77
2022/02/28 02:54:15;;;;;;;11.85;3.42;;;3.20;80.70;;;;;;5047896;28;20402;-78
2022/02/28 02:56:41;;;;;;;8.23;3.25;;;3.10;81.10;;;;;;5046236;28;20032;-78
2022/02/28 02:59:07;;;;;;;8.73;3.97;;;3.10;81.60;;;;;;5046702;28;20112;-79
2022/02/28 03:01:33;;;;;;;;;;;3.10;81.70;;;;;;5049953;28;20079;-77
2022/02/28 03:03:58;;;;;;;7.20;3.25;;;3.10;81.40;;;;;;5047789;28;19905;-78
2022/02/28 03:06:25;;;;;;;6.88;3.72;;;3.10;82.10;;;;;;5047706;28;20025;-79
2022/02/28 03:08:51;;;;;;;8.18;2.78;;;3.10;82.70;;;;;;5047793;28;20091;-79
2022/02/28 03:11:17;;;;;;;8.73;2.85;;;3.10;82.40;;;;;;5048172;28;20033;-78
2022/02/28 03:13:43;;;;;;;;;;;3.10;81.40;;;;;;5046740;28;20044;-78
2022/02/28 03:16:08;;;;;;;7.45;2.90;;;3.10;80.00;;;;;;5046704;28;19905;-77
2022/02/28 03:18:34;;;;;;;9.55;2.92;;;3.10;80.60;;;;;;5046472;28;20031;-77
2022/02/28 03:21:00;;;;;;;;;;;3.10;80.30;;;;;;5048397;28;20111;-77
2022/02/28 03:23:26;;;;;;;8.05;3.28;;;3.00;81.30;;;;;;5047049;28;19909;-77
2022/02/28 03:25:53;;;;;;;9.25;3.60;;;3.00;83.20;;;;;;5046793;28;20060;-77
2022/02/28 03:28:19;;;;;;;7.45;3.33;;;3.10;84.30;;;;;;5046879;28;20120;-78
2022/02/28 03:30:45;;;;;;;7.85;3.10;;;3.10;83.80;;;;;;5046257;28;20049;-78
2022/02/28 03:33:11;;;;;;;10.20;3.88;;;3.10;83.80;;;;;;5048241;28;20108;-79
2022/02/28 03:35:36;;;;;;;9.80;3.50;;;3.10;83.70;;;;;;5048178;28;20044;-78
2022/02/28 03:38:02;;;;;;;;;;;3.00;80.50;;;;;;5048650;28;20291;-78
2022/02/28 03:40:28;;;;;;;8.00;2.92;;;3.00;80.50;;;;;;5046024;28;20400;-77
2022/02/28 03:42:55;;;;;;;;;;;3.00;79.20;;;;;;5046647;28;20401;-78
2022/02/28 03:45:21;;;;;;;5.47;2.50;;;2.90;77.30;;;;;;5048298;28;19908;-78
2022/02/28 03:47:47;;;;;;;9.30;2.40;;;3.00;75.30;;;;;;5046391;28;20033;-79
2022/02/28 03:50:12;;;;;;;12.48;3.10;;;2.90;76.40;;;;;;5048232;28;20183;-79
2022/02/28 03:52:38;;;;;;;;;;;2.90;75.30;;;;;;5047739;28;20070;-77
2022/02/28 03:55:04;;;;;;;10.63;3.28;;;3.00;75.20;;;;;;5047650;28;20745;-79
2022/02/28 03:57:29;;;;;;;5.35;2.38;;;2.90;75.30;;;;;;5046585;28;20029;-78
2022/02/28 03:59:56;;;;;;;5.93;2.72;;;2.90;73.20;;;;;;5046373;28;20040;-77
2022/02/28 04:02:21;;;;;;;;;;;2.90;74.10;;;;;;5047991;28;20116;-78
2022/02/28 04:04:47;;;;;;;9.35;3.33;;;2.90;75.00;;;;;;5046192;28;20042;-77
2022/02/28 04:07:13;;;;;;;7.75;2.30;;;2.80;73.50;;;;;;5045859;28;20090;-77
2022/02/28 04:09:40;;;;;;;7.28;3.38;;;2.80;72.80;;;;;;5046839;28;20147;-78
2022/02/28 04:12:08;;;;;;;10.02;3.40;;;2.80;74.60;;;;;;5048042;28;20033;-77
2022/02/28 04:14:34;;;;;;;7.45;2.95;;;2.70;74.20;;;;;;5047617;28;20017;-77
2022/02/28 04:16:59;;;;;;;8.10;3.47;;;2.60;72.20;;;;;;5047777;28;20029;-78
2022/02/28 04:19:25;;;;;;;;;;;2.70;71.20;;;;;;5046425;28;20029;-77
2022/02/28 04:21:51;;;;;;;13.82;2.90;;;2.80;69.10;;;;;;5045520;28;19909;-78
2022/02/28 04:24:16;;;;;;;;;;;2.70;72.10;;;;;;5046039;28;20048;-78
2022/02/28 04:26:44;;;;;;;9.52;2.10;;;2.80;69.80;;;;;;5046194;28;19920;-78
2022/02/28 04:29:12;;;;;;;8.85;3.55;;;2.70;70.50;;;;;;5045620;28;20029;-78
2022/02/28 04:31:38;;;;;;;9.85;2.97;;;2.70;72.70;;;;;;5046103;28;20135;-78
2022/02/28 04:34:04;;;;;;;;;;;2.70;71.20;;;;;;5046998;28;20489;-78
2022/02/28 04:36:30;;;;;;;6.13;2.00;;;2.70;72.90;;;;;;5047726;28;20011;-78
2022/02/28 04:38:57;;;;;;;;;;;2.60;72.30;;;;;;5048158;28;20025;-78
2022/02/28 04:41:24;;;;;;;7.72;1.90;;;2.60;72.40;;;;;;5046395;28;19909;-78
2022/02/28 04:43:49;;;;;;;8.40;3.13;;;2.60;73.90;;;;;;5045768;28;20021;-79
2022/02/28 04:46:15;;;;;;;;;;;2.60;77.70;;;;;;5047370;28;20128;-79
2022/02/28 04:48:41;;;;;;;7.78;3.25;;;2.60;80.80;;;;;;5046396;28;19909;-79
2022/02/28 04:51:06;;;;;;;;;;;2.50;84.60;;;;;;5047734;28;20407;-78
2022/02/28 04:53:32;;;;;;;6.72;2.78;;;2.40;87.40;;;;;;5053625;28;19913;-78
2022/02/28 04:55:58;;;;;;;7.63;3.08;;;2.40;88.20;;;;;;5055545;28;20032;-78
2022/02/28 04:58:24;;;;;;;;;;;2.40;90.00;;;;;;5049342;28;20041;-79
2022/02/28 05:00:49;;;;;;;5.20;2.40;;;2.30;90.10;;;;;;5048565;28;19909;-78
2022/02/28 05:03:15;;;;;;;;;;;2.30;90.20;;;;;;5050675;28;20117;-77
2022/02/28 05:05:41;;;;;;;7.88;2.78;;;2.30;90.70;;;;;;5048521;28;19943;-78
2022/02/28 05:08:07;;;;;;;8.32;2.65;;;2.30;90.90;;;;;;5050260;28;20553;-78
2022/02/28 05:10:32;;;;;;;;;;;2.20;90.90;;;;;;5049834;28;20036;-79
2022/02/28 05:12:58;;;;;;;6.88;2.53;;;2.20;90.60;;;;;;5049694;28;19955;-78
2022/02/28 05:15:23;;;;;;;;;;;2.20;89.40;;;;;;5048580;28;20032;-78
2022/02/28 05:17:49;;;;;;;7.55;2.55;;;2.20;88.40;;;;;;5047997;28;20028;-77
2022/02/28 05:20:14;;;;;;;7.80;2.97;;;2.20;87.90;;;;;;5049594;28;20043;-77
2022/02/28 05:22:40;;;;;;;6.47;3.35;;;2.10;89.50;;;;;;5048306;28;20551;-77
2022/02/28 05:25:06;;;;;;;4.45;1.92;;;2.10;88.20;;;;;;5051946;28;20021;-79
2022/02/28 05:27:39;;;;;;;;;;;2.10;86.30;;;;;;5050797;28;20528;-79
2022/02/28 05:30:07;;;;;;;4.72;1.92;;;2.10;85.70;;;;;;5044948;28;19917;-79
2022/02/28 05:32:34;;;;;;;5.30;2.70;;;2.10;83.80;;;;;;5050151;28;20053;-78
2022/02/28 05:35:00;;;;;;;6.45;2.78;;;2.00;85.00;;;;;;5048698;28;20040;-77
2022/02/28 05:37:25;;;;;;;;;;;2.00;83.30;;;;;;5049827;28;20025;-78
2022/02/28 05:39:51;;;;;;;6.28;2.10;;;2.10;82.00;;;;;;5047373;28;19913;-77
2022/02/28 05:42:16;;;;;;;;;;;2.10;79.70;;;;;;5049222;28;20044;-77
2022/02/28 05:44:42;;;;;;;4.22;1.58;;;2.10;78.10;;;;;;5047912;28;19913;-78
2022/02/28 05:47:07;;;;;;;5.47;1.50;;;2.20;75.10;;;;;;5049712;28;20090;-77
2022/02/28 05:49:33;;;;;;;6.45;2.00;;;2.10;75.70;;;;;;5047464;28;20029;-78
2022/02/28 05:51:59;;;;;;;5.38;1.50;;;2.10;74.50;;;;;;5047637;28;20243;-78
2022/02/28 05:54:24;;;;;;;;;;;2.20;74.10;;;;;;5048266;28;20029;-78
2022/02/28 05:56:50;;;;;;;6.72;2.70;;;2.30;70.60;;;;;;5048234;28;19995;-79
2022/02/28 05:59:15;;;;;;;;;;;2.40;70.80;;;;;;5048644;28;20124;-79
2022/02/28 06:01:41;;;;;;;5.10;1.65;;;2.50;69.60;;;;;;5048312;28;20376;-79
2022/02/28 06:04:07;;;;;;;;;;;2.60;66.90;;;;;;5050676;28;20485;-77
2022/02/28 06:06:32;;;;;;;5.00;1.60;;;2.60;66.70;;;;;;5047857;28;19963;-78
2022/02/28 06:08:58;;;;;;;5.68;1.90;;;2.70;65.50;;;;;;5049072;28;20060;-78
2022/02/28 06:11:25;;;;;;;;;;;2.70;64.20;;;;;;5048176;28;20568;-78
2022/02/28 06:13:51;;;;;;;5.68;1.52;;;2.60;64.10;;;;;;5048668;28;20046;-78
2022/02/28 06:16:16;;;;;;;;;;;2.60;63.70;;;;;;5047422;28;20128;-77
2022/02/28 06:18:42;;;;;;;7.03;1.35;;;2.60;63.70;;;;;;5046781;28;20392;-77
2022/02/28 06:21:08;;;;;;;;;;;2.60;63.90;;;;;;5047077;28;20094;-78
2022/02/28 06:23:33;;;;;;;3.85;1.08;;;2.50;64.10;;;;;;5047729;28;19909;-77
2022/02/28 06:25:59;;;;;;;6.50;1.38;;;2.60;64.00;;;;;;5046861;28;20025;-78
2022/02/28 06:28:28;;;;;;;5.22;1.50;;;2.60;64.00;;;;;;5047052;28;20029;-78
2022/02/28 06:30:53;;;;;;;8.45;2.38;;;2.70;63.70;;;;;;5047009;28;20077;-77
2022/02/28 06:33:19;;;;;;;3.03;1.05;;;2.80;63.40;;;;;;5046602;28;20100;-78
2022/02/28 06:35:48;;;;;;;7.68;1.40;;;2.90;63.20;;;;;;5046468;28;20497;-77
2022/02/28 06:38:15;;;;;;;4.13;1.23;;;3.00;63.20;;;;;;5048410;28;20021;-77
2022/02/28 06:40:41;;;;;;;4.07;1.50;;;3.10;62.70;;;;;;5048502;28;20036;-78
2022/02/28 06:43:07;;;;;;;6.15;1.85;;;3.20;63.40;;;;;;5047307;28;20025;-77
2022/02/28 06:45:32;;;;;;;;;;;3.10;62.50;;;;;;5047166;28;20124;-77
2022/02/28 06:47:58;;;;;;;7.22;1.63;;;3.10;62.90;;;;;;5048789;28;20570;-78
2022/02/28 06:50:24;;;;;;;;;;;3.40;62.80;;;;;;5048723;28;20804;-78
2022/02/28 06:52:50;;;;;;;6.85;1.40;;;3.60;61.50;;;;;;5048018;28;20369;-77
2022/02/28 06:55:15;;;;;;;8.70;2.95;;;4.00;60.80;;;;;;5048460;28;20107;-79
2022/02/28 06:57:41;;;;;;;10.40;4.22;;;4.30;60.10;;;;;;5047282;28;20036;-77
2022/02/28 07:00:07;;;;;;;;;;;4.60;58.40;;;;;;5049191;28;20033;-77
2022/02/28 07:02:33;;;;;;;8.02;2.13;;;4.90;57.60;;;;;;5047083;28;20366;-76
2022/02/28 07:04:58;;;;;;;;;;;5.00;56.90;;;;;;5050152;28;20021;-76
2022/02/28 07:07:24;;;;;;;11.57;2.67;;;5.40;55.80;;;;;;5047153;28;20286;-76
2022/02/28 07:09:50;;;;;;;9.23;2.92;;;5.80;54.40;;;;;;5046825;28;20041;-78
2022/02/28 07:12:15;;;;;;;;;;;5.80;53.70;;;;;;5048932;28;20517;-78
2022/02/28 07:14:41;;;;;;;10.32;3.50;;;6.20;53.40;;;;;;5048191;28;19975;-77
2022/02/28 07:17:07;;;;;;;27.65;6.95;;;6.20;52.20;;;;;;5048710;28;20656;-77
2022/02/28 07:19:33;;;;;;;14.95;4.45;;;6.10;52.00;;;;;;5048870;28;20497;-78
2022/02/28 07:21:59;;;;;;;20.88;5.18;;;6.40;51.60;;;;;;5050108;28;20124;-77
2022/02/28 07:24:25;;;;;;;8.35;2.70;;;6.50;51.00;;;;;;5049122;28;20021;-78
2022/02/28 07:26:51;;;;;;;11.45;2.88;;;6.50;50.50;;;;;;5052425;28;20055;-78
2022/02/28 07:29:17;;;;;;;8.07;2.92;;;6.70;50.60;;;;;;5052974;28;20029;-77
2022/02/28 07:31:42;;;;;;;6.85;2.33;;;6.80;50.00;;;;;;5049259;28;20052;-77
2022/02/28 07:34:09;;;;;;;9.18;3.60;;;6.80;50.10;;;;;;5047787;28;20025;-77
2022/02/28 07:36:36;;;;;;;7.95;2.90;;;6.90;49.70;;;;;;5048234;28;20056;-77
2022/02/28 07:39:03;;;;;;;9.82;2.58;;;7.20;49.20;;;;;;5045912;28;20021;-77
2022/02/28 07:41:29;;;;;;;6.22;2.92;;;7.40;48.50;;;;;;5046166;28;20029;-77
2022/02/28 07:43:54;;;;;;;6.90;2.47;;;7.30;48.90;;;;;;5045650;28;20029;-77
2022/02/28 07:46:20;;;;;;;8.93;3.35;;;7.10;49.20;;;;;;5047414;28;20135;-77
2022/02/28 07:48:46;;;;;;;7.97;2.70;;;7.10;49.90;;;;;;5046967;28;20079;-77
2022/02/28 07:51:12;;;;;;;;;;;7.00;50.20;;;;;;5046003;28;20117;-77
2022/02/28 07:53:37;;;;;;;4.72;1.95;;;6.80;50.90;;;;;;5044511;28;20337;-77
2022/02/28 07:56:03;;;;;;;7.38;2.65;;;6.60;51.20;;;;;;5046647;28;20049;-77
2022/02/28 07:58:29;;;;;;;5.40;2.00;;;5.90;53.00;;;;;;5046945;28;20059;-76
2022/02/28 08:00:54;;;;;;;;;;;5.20;56.00;;;;;;5046099;28;20043;-76
2022/02/28 08:03:20;;;;;;;6.38;2.30;;;4.60;60.70;;;;;;5046754;28;20317;-77
2022/02/28 08:05:46;;;;;;;4.85;1.83;;;4.30;67.90;;;;;;5044726;28;20501;-76
2022/02/28 08:08:11;;;;;;;7.15;1.48;;;4.50;71.10;;;;;;5045619;28;20041;-77
2022/02/28 08:10:37;;;;;;;8.57;2.92;;;4.90;69.40;;;;;;5047124;28;20033;-77
2022/02/28 08:13:04;;;;;;;4.93;1.95;;;5.00;69.60;;;;;;5046129;28;20041;-77
2022/02/28 08:15:29;;;;;;;8.35;3.35;;;4.50;76.60;;;;;;5046319;28;20025;-76
2022/02/28 08:17:55;;;;;;;8.90;1.83;;;4.10;90.70;;;;;;5045099;28;20123;-76
2022/02/28 08:20:21;;;;;;;5.18;1.73;;;3.50;97.70;;;;;;5046845;28;20047;-77
2022/02/28 08:22:46;;;;;;;12.63;3.17;;;3.10;99.90;;;;;;5046648;28;20515;-77
2022/02/28 08:25:12;;;;;;;6.00;2.72;;;3.00;99.90;;;;;;5046959;28;20513;-77
2022/02/28 08:27:38;;;;;;;15.63;4.50;;;3.20;99.90;;;;;;5044609;28;20123;-77
2022/02/28 08:30:05;;;;;;;6.38;2.58;;;3.40;99.90;;;;;;5048825;28;20053;-77
2022/02/28 08:32:31;;;;;;;8.95;2.97;;;3.40;99.90;;;;;;5050474;28;20059;-77
2022/02/28 08:34:57;;;;;;;;;;;3.50;99.90;;;;;;5050914;28;20451;-77
2022/02/28 08:37:23;;;;;;;4.72;2.42;;;3.20;99.90;;;;;;5049906;28;19944;-77
2022/02/28 08:39:48;;;;;;;;;;;3.00;99.90;;;;;;5050349;28;20056;-77
2022/02/28 08:42:14;;;;;;;4.70;1.52;;;3.00;99.90;;;;;;5050508;28;19908;-77
2022/02/28 08:44:40;;;;;;;4.68;1.85;;;3.20;99.90;;;;;;5048869;28;20033;-78
2022/02/28 08:47:06;;;;;;;4.68;1.65;;;3.60;99.90;;;;;;5049229;28;20037;-77
2022/02/28 08:49:31;;;;;;;3.63;1.17;;;4.20;99.90;;;;;;5050822;28;20040;-77
2022/02/28 08:51:57;;;;;;;6.57;1.58;;;4.90;96.60;;;;;;5050057;28;20041;-77
2022/02/28 08:54:22;;;;;;;;;;;5.40;92.50;;;;;;5051438;28;20033;-77
2022/02/28 08:56:49;;;;;;;4.38;1.92;;;5.80;92.60;;;;;;5050593;28;19909;-77
2022/02/28 08:59:14;;;;;;;2.65;1.30;;;6.40;83.70;;;;;;5052429;28;20510;-78
2022/02/28 09:01:40;;;;;;;3.10;1.30;;;6.50;78.10;;;;;;5050902;28;20094;-77
2022/02/28 09:04:06;;;;;;;;;;;6.70;75.00;;;;;;5051728;28;20078;-78
2022/02/28 09:06:31;;;;;;;6.88;2.20;;;6.60;76.00;;;;;;5051565;28;20003;-78
2022/02/28 09:08:58;;;;;;;8.90;3.08;;;6.90;75.70;;;;;;5050147;28;20067;-77
2022/02/28 09:11:24;;;;;;;5.55;1.60;;;7.10;72.60;;;;;;5053104;28;20040;-78
2022/02/28 09:13:50;;;;;;;;;;;7.60;68.90;;;;;;5052921;28;20024;-78
2022/02/28 09:16:15;;;;;;;6.15;2.80;;;7.50;68.40;;;;;;5053009;28;19912;-77
2022/02/28 09:18:41;;;;;;;9.02;3.83;;;7.70;69.30;;;;;;5053429;28;20095;-77
2022/02/28 09:21:07;;;;;;;6.45;2.50;;;7.80;65.30;;;;;;5051732;28;20167;-77
2022/02/28 09:23:33;;;;;;;7.53;2.78;;;7.40;67.00;;;;;;5049852;28;20029;-77
2022/02/28 09:25:58;;;;;;;4.82;1.98;;;7.00;69.20;;;;;;5051837;28;20041;-77
2022/02/28 09:28:24;;;;;;;3.33;1.50;;;6.90;68.10;;;;;;5050649;28;20485;-78
2022/02/28 09:30:50;;;;;;;5.80;2.90;;;6.30;73.30;;;;;;5050573;28;20064;-77
2022/02/28 09:33:16;;;;;;;5.57;2.45;;;5.70;80.60;;;;;;5050305;28;20032;-78
2022/02/28 09:35:42;;;;;;;6.43;2.13;;;5.00;84.20;;;;;;5050854;28;20516;-77
2022/02/28 09:38:07;;;;;;;5.65;2.55;;;4.70;91.80;;;;;;5050319;28;20070;-77
2022/02/28 09:40:34;;;;;;;;;;;4.50;94.10;;;;;;5049240;28;20033;-77
2022/02/28 09:43:03;;;;;;;7.13;2.03;;;4.30;97.80;;;;;;5049874;28;19909;-77
2022/02/28 09:45:30;;;;;;;4.45;2.00;;;4.10;99.90;;;;;;5049164;28;20725;-76
2022/02/28 09:47:57;;;;;;;13.68;3.25;;;3.80;99.90;;;;;;5051264;28;20032;-77
2022/02/28 09:50:23;;;;;;;7.80;2.40;;;3.80;99.90;;;;;;5050306;28;20559;-78
2022/02/28 09:52:49;;;;;;;7.97;2.80;;;4.00;99.90;;;;;;5050190;28;20024;-77
2022/02/28 09:55:15;;;;;;;7.57;3.00;;;3.80;99.90;;;;;;5049980;28;20040;-77
2022/02/28 09:57:49;;;;;;;9.75;3.55;;;4.00;99.90;;;;;;5051829;28;20037;-77
2022/02/28 10:00:19;;;;;;;9.27;3.92;;;3.90;99.90;;;;;;5052428;28;20025;-78
2022/02/28 10:02:46;;;;;;;9.80;3.05;;;4.10;99.90;;;;;;5056648;28;20176;-78
2022/02/28 10:05:11;;;;;;;;;;;4.30;99.90;;;;;;5057148;28;20032;-77
2022/02/28 10:07:50;;;;;;;10.75;3.67;;;4.50;99.90;;;;;;5048153;28;19905;-77
2022/02/28 10:10:16;;;;;;;9.65;4.05;;;4.50;99.90;;;;;;5047839;28;20037;-78
2022/02/28 10:12:42;;;;;;;12.15;2.42;;;4.90;99.90;;;;;;5047851;28;20037;-78
2022/02/28 10:15:15;;;;;;;3.20;0.95;;;5.40;99.00;;;;;;5046971;28;20094;-77
2022/02/28 10:18:02;;;;;;;4.18;1.70;;;5.90;94.10;;;;;;5048024;28;20155;-78
2022/02/28 10:20:31;;;;;;;;;;;6.60;82.50;;;;;;5047601;28;20037;-77
2022/02/28 10:23:08;;;;;;;8.10;3.00;;;7.00;76.20;;;;;;5048192;28;20019;-78
2022/02/28 10:25:39;;;;;;;4.97;1.98;;;7.10;77.20;;;;;;5049563;28;20482;-78
2022/02/28 10:28:08;;;;;;;3.53;1.33;;;7.50;69.10;;;;;;5048709;28;20033;-78
2022/02/28 10:30:34;;;;;;;4.45;1.88;;;7.30;66.80;;;;;;5048697;28;20067;-77
2022/02/28 10:33:08;;;;;;;3.78;1.95;;;7.20;66.80;;;;;;5048160;28;20024;-78
2022/02/28 10:35:59;;;;;;;6.57;1.80;;;6.80;69.00;;;;;;5046792;28;20564;-78
2022/02/28 10:38:30;;;;;;;5.60;2.08;;;6.40;69.80;;;;;;5048267;28;20118;-78
2022/02/28 10:40:57;;;;;;;11.43;3.10;;;6.20;73.90;;;;;;5047478;28;20033;-77
2022/02/28 10:43:42;;;;;;;13.95;3.63;;;6.10;72.70;;;;;;5046857;28;20036;-78
2022/02/28 10:46:29;;;;;;;10.93;2.92;;;5.80;73.30;;;;;;5047000;28;20060;-77
2022/02/28 10:49:07;;;;;;;8.52;2.80;;;5.40;77.30;;;;;;5047098;28;20766;-77
2022/02/28 10:51:44;;;;;;;8.25;2.63;;;5.30;80.70;;;;;;5045533;28;20106;-78
2022/02/28 10:54:27;;;;;;;15.75;4.90;;;5.30;78.90;;;;;;5048569;28;20384;-78
2022/02/28 10:56:57;;;;;;;11.40;3.65;;;5.30;83.50;;;;;;5048960;28;20505;-78
2022/02/28 10:59:26;;;;;;;4.05;1.98;;;5.50;84.80;;;;;;5047603;28;20036;-77
2022/02/28 11:01:53;;;;;;;9.98;3.47;;;5.60;82.60;;;;;;5046593;28;20497;-77
2022/02/28 11:04:41;;;;;;;9.18;3.05;;;5.60;83.20;;;;;;5049083;28;20525;-78
2022/02/28 11:07:11;;;;;;;6.53;2.55;;;5.50;83.40;;;;;;5041197;28;20033;-77
2022/02/28 11:09:38;;;;;;;8.07;3.88;;;5.50;84.10;;;;;;5047793;28;20024;-79
2022/02/28 11:12:30;;;;;;;7.45;3.25;;;5.50;85.20;;;;;;5049423;28;20573;-78
2022/02/28 11:15:04;;;;;;;7.00;2.72;;;5.50;81.50;;;;;;5047248;28;20104;-77
2022/02/28 11:17:32;;;;;;;6.45;2.80;;;5.40;83.30;;;;;;5047161;28;20405;-77
2022/02/28 11:20:00;;;;;;;9.82;3.00;;;5.40;81.30;;;;;;5047781;28;20099;-78
2022/02/28 11:22:27;;;;;;;8.85;3.58;;;5.30;84.30;;;;;;5046830;28;20335;-78
2022/02/28 11:24:54;;;;;;;8.90;3.22;;;5.50;81.00;;;;;;5045991;28;20033;-77
2022/02/28 11:27:21;;;;;;;9.68;3.55;;;5.60;82.70;;;;;;5046584;28;20098;-77
2022/02/28 11:29:58;;;;;;;8.88;2.70;;;5.60;80.20;;;;;;5047082;28;20657;-78
2022/02/28 11:32:26;;;;;;;5.90;2.70;;;5.70;77.00;;;;;;5047592;28;20490;-78
2022/02/28 11:34:54;;;;;;;10.30;3.08;;;5.60;74.50;;;;;;5048762;28;20036;-77
2022/02/28 11:37:25;;;;;;;4.45;1.70;;;5.70;74.70;;;;;;5046964;28;20143;-78
2022/02/28 11:40:01;;;;;;;6.88;2.33;;;5.60;72.90;;;;;;5048519;28;20024;-77
2022/02/28 11:42:46;;;;;;;;;;;5.60;72.30;;;;;;5048735;28;20031;-78
2022/02/28 11:45:11;;;;;;;7.15;2.15;;;5.50;72.70;;;;;;5047507;28;19909;-78
2022/02/28 11:47:37;;;;;;;4.25;1.77;;;5.60;72.10;;;;;;5046790;28;20028;-78
2022/02/28 11:50:17;;;;;;;;;;;5.50;72.50;;;;;;5047432;28;20041;-78
2022/02/28 11:52:43;;;;;;;10.68;3.50;;;5.50;71.90;;;;;;5048442;28;19912;-77
2022/02/28 11:55:13;;;;;;;11.40;3.78;;;5.60;71.90;;;;;;5046435;28;20393;-77
2022/02/28 11:57:58;;;;;;;13.20;3.42;;;5.60;70.10;;;;;;5046137;28;20473;-77
2022/02/28 12:01:01;;;;;;;10.38;3.00;;;5.60;71.10;;;;;;5047176;28;20037;-78
2022/02/28 12:03:30;;;;;;;6.78;3.15;;;5.60;74.30;;;;;;5050007;28;20029;-76
2022/02/28 12:05:58;;;;;;;9.27;3.40;;;5.70;72.70;;;;;;5051826;28;20453;-77
2022/02/28 12:08:37;;;;;;;4.85;1.50;;;6.00;70.20;;;;;;5051520;28;20240;-78
2022/02/28 12:11:30;;;;;;;3.53;1.13;;;5.90;69.10;;;;;;5049837;28;20037;-77
2022/02/28 12:14:04;;;;;;;3.90;1.60;;;6.10;67.10;;;;;;5048091;28;20044;-77
2022/02/28 12:19:29;;;;;;;6.10;1.75;;;6.10;65.40;;;;;;5052049;28;20028;-77
2022/02/28 12:22:03;;;;;;;10.07;2.65;;;6.00;66.10;;;;;;5050018;28;20029;-77
2022/02/28 12:24:53;;;;;;;6.38;2.15;;;6.10;66.40;;;;;;5051357;28;20140;-77
2022/02/28 12:27:36;;;;;;;8.93;2.25;;;6.10;65.70;;;;;;5052434;28;20129;-77
2022/02/28 12:30:35;;;;;;;8.35;1.92;;;6.20;64.80;;;;;;5051252;28;20577;-77
2022/02/28 12:33:01;;;;;;;7.60;2.90;;;6.30;63.30;;;;;;5035376;28;20036;-78
2022/02/28 12:35:48;;;;;;;5.95;2.28;;;6.40;63.20;;;;;;5051883;28;20017;-78
2022/02/28 12:38:14;;;;;;;;;;;6.40;62.10;;;;;;5052377;28;20040;-78
2022/02/28 12:40:47;;;;;;;2.58;1.45;;;6.60;62.60;;;;;;5055964;28;20007;-77
2022/02/28 12:43:16;;;;;;;4.50;2.05;;;6.50;61.30;;;;;;5050867;28;20037;-77
2022/02/28 12:45:42;;;;;;;6.80;1.92;;;6.40;62.40;;;;;;5049244;28;20036;-77
2022/02/28 12:48:09;;;;;;;3.95;1.83;;;6.40;63.70;;;;;;5049985;28;20025;-77
2022/02/28 12:50:35;;;;;;;7.07;1.55;;;6.50;62.40;;;;;;5048248;28;20098;-77
2022/02/28 12:53:01;;;;;;;4.57;1.73;;;6.60;62.00;;;;;;5048952;28;20428;-78
2022/02/28 12:55:26;;;;;;;4.63;1.83;;;6.40;62.80;;;;;;5048883;28;20060;-78
2022/02/28 12:57:52;;;;;;;;;;;6.50;63.00;;;;;;5048580;28;20056;-77
2022/02/28 13:00:17;;;;;;;5.55;1.40;;;6.50;63.20;;;;;;5048697;28;19913;-77
2022/02/28 13:02:59;;;;;;;7.70;2.67;;;6.60;63.00;;;;;;5049015;28;20068;-77
2022/02/28 13:05:27;;;;;;;4.72;1.70;;;6.60;63.00;;;;;;5049527;28;20409;-77
2022/02/28 13:08:02;;;;;;;6.18;2.15;;;6.70;61.30;;;;;;5048542;28;20029;-77
2022/02/28 13:10:28;;;;;;;3.78;1.45;;;6.70;61.30;;;;;;5049001;28;20401;-77
2022/02/28 13:12:54;;;;;;;9.40;2.83;;;6.70;60.20;;;;;;5049738;28;20478;-78
2022/02/28 13:15:20;;;;;;;5.97;2.97;;;6.80;59.10;;;;;;5047814;28;20032;-77